Time;durP1;ratioP1;P1;durP2;ratioP2;P2;SDS_P1;SDS_P2;PMS_P1;PMS_P2;Temp;Humidity;BMP_temperature;BMP_pressure;BME280_temperature;BME280_humidity;BME280_pressure;Samples;Min_cycle;Max_cycle;Signal;HPM_P1;HPM_P2
2023/06/14 00:02:11;;;;;;;0.70;0.43;;;;;;;20.15;61.39;101111.03;5029421;28;20104;-65
2023/06/14 00:04:38;;;;;;;0.45;0.30;;;;;;;20.04;61.99;101111.16;5027145;28;20037;-65
2023/06/14 00:07:04;;;;;;;2.45;0.65;;;;;;;19.87;62.56;101123.03;5028680;28;20083;-66
2023/06/14 00:09:30;;;;;;;0.85;0.52;;;;;;;19.84;62.63;101117.63;5009350;28;20041;-64
2023/06/14 00:11:55;;;;;;;0.95;0.60;;;;;;;19.82;62.84;101119.97;5030250;28;20517;-65
2023/06/14 00:14:21;;;;;;;1.35;0.40;;;;;;;19.90;62.51;101118.72;5022535;28;20034;-65
2023/06/14 00:16:47;;;;;;;0.73;0.50;;;;;;;19.83;62.81;101113.31;5033851;28;20711;-65
2023/06/14 00:19:13;;;;;;;0.40;0.30;;;;;;;19.82;62.57;101123.50;5030515;28;20045;-65
2023/06/14 00:21:38;;;;;;;0.40;0.40;;;;;;;19.78;62.87;101123.50;5029942;28;20132;-65
2023/06/14 00:24:04;;;;;;;1.08;0.40;;;;;;;19.67;63.10;101130.25;5037244;28;20032;-64
2023/06/14 00:26:30;;;;;;;0.85;0.50;;;;;;;19.65;63.15;101130.66;5040087;28;20507;-64
2023/06/14 00:28:56;;;;;;;0.50;0.30;;;;;;;19.60;63.59;101128.38;5029584;28;20032;-65
2023/06/14 00:31:22;;;;;;;0.75;0.45;;;;;;;19.71;63.20;101126.31;5028075;28;20760;-63
2023/06/14 00:33:48;;;;;;;1.73;0.38;;;;;;;19.76;62.68;101119.66;5011605;28;20040;-64
2023/06/14 00:36:13;;;;;;;1.23;0.32;;;;;;;19.65;63.46;101129.88;5009100;28;20029;-65
2023/06/14 00:38:39;;;;;;;1.45;0.63;;;;;;;19.62;63.18;101134.22;5027425;28;20598;-65
2023/06/14 00:41:04;;;;;;;0.52;0.38;;;;;;;19.49;63.77;101124.94;5005985;28;20041;-65
2023/06/14 00:43:30;;;;;;;1.17;0.50;;;;;;;19.43;64.20;101125.81;5013649;28;20018;-65
2023/06/14 00:45:55;;;;;;;0.50;0.50;;;;;;;19.44;64.17;101133.59;5005568;28;20515;-65
2023/06/14 00:48:21;;;;;;;1.75;0.75;;;;;;;19.47;64.38;101135.50;5001306;28;20568;-64
2023/06/14 00:50:49;;;;;;;0.80;0.40;;;;;;;19.47;64.35;101146.44;5010369;28;20116;-65
2023/06/14 00:53:17;;;;;;;1.55;0.70;;;;;;;19.46;64.22;101146.84;5015078;28;20433;-65
2023/06/14 00:55:44;;;;;;;0.50;0.40;;;;;;;19.40;64.22;101146.50;5006412;28;20033;-64
2023/06/14 00:58:10;;;;;;;0.50;0.47;;;;;;;19.42;64.22;101155.06;5015361;28;20409;-66
2023/06/14 01:00:36;;;;;;;0.90;0.60;;;;;;;19.38;64.83;101139.88;5013563;28;20022;-66
2023/06/14 01:03:02;;;;;;;0.75;0.52;;;;;;;19.38;64.86;101139.88;4999391;28;20033;-65
2023/06/14 01:05:29;;;;;;;0.50;0.50;;;;;;;19.30;65.32;101141.84;5026264;28;20025;-64
2023/06/14 01:08:42;;;;;;;1.25;0.60;;;;;;;19.30;65.29;101147.31;5019197;28;20641;-66
2023/06/14 01:11:18;;;;;;;0.50;0.50;;;;;;;19.31;65.28;101150.84;5010922;28;20038;-65
2023/06/14 01:13:46;;;;;;;0.73;0.47;;;;;;;19.14;65.80;101154.47;5021553;28;20065;-65
2023/06/14 01:16:14;;;;;;;0.65;0.40;;;;;;;19.27;65.28;101145.41;5001999;28;20170;-64
2023/06/14 01:18:41;;;;;;;0.45;0.30;;;;;;;19.19;65.66;101143.91;5013941;28;20056;-65
2023/06/14 01:21:20;;;;;;;0.80;0.60;;;;;;;19.09;66.03;101147.47;5023189;28;20042;-65
2023/06/14 01:23:52;;;;;;;0.60;0.32;;;;;;;19.01;66.88;101147.94;5011366;28;20067;-66
2023/06/14 01:26:19;;;;;;;0.90;0.40;;;;;;;19.05;66.56;101151.41;5023024;28;20224;-65
2023/06/14 01:28:48;;;;;;;1.10;0.40;;;;;;;19.02;66.94;101153.00;5028630;28;20044;-66
2023/06/14 01:31:19;;;;;;;4.90;0.60;;;;;;;18.97;67.28;101147.19;5025180;28;20044;-65
2023/06/14 01:33:46;;;;;;;0.50;0.50;;;;;;;19.02;67.00;101149.47;5021592;28;20148;-65
2023/06/14 01:36:13;;;;;;;2.00;0.60;;;;;;;18.86;67.75;101149.94;5011295;28;20040;-66
2023/06/14 01:38:39;;;;;;;0.40;0.40;;;;;;;18.89;67.61;101146.44;5010965;28;20112;-66
2023/06/14 01:41:06;;;;;;;1.58;0.80;;;;;;;18.87;67.51;101149.56;5018973;28;20025;-65
2023/06/14 01:43:33;;;;;;;0.75;0.73;;;;;;;18.89;67.48;101143.72;5021032;28;20479;-65
2023/06/14 01:46:00;;;;;;;0.85;0.60;;;;;;;18.85;67.79;101151.16;5022212;28;20044;-65
2023/06/14 01:48:27;;;;;;;0.93;0.50;;;;;;;18.80;67.94;101148.81;5010569;28;20033;-65
2023/06/14 01:50:53;;;;;;;1.23;0.68;;;;;;;18.66;68.57;101149.66;5021483;28;20088;-64
2023/06/14 01:53:20;;;;;;;1.10;0.50;;;;;;;18.68;68.75;101152.78;5008779;28;20060;-66
2023/06/14 01:55:48;;;;;;;0.90;0.50;;;;;;;18.63;69.22;101153.19;5024528;28;20040;-66
2023/06/14 01:58:15;;;;;;;0.93;0.40;;;;;;;18.66;68.88;101155.13;5016209;28;20026;-65
2023/06/14 02:00:43;;;;;;;0.70;0.55;;;;;;;18.71;68.77;101148.47;4995316;28;20441;-65
2023/06/14 02:03:08;;;;;;;0.80;0.60;;;;;;;18.62;69.34;101162.53;5018819;28;20038;-66
2023/06/14 02:05:34;;;;;;;2.72;0.60;;;;;;;18.56;69.53;101152.44;5026944;28;20032;-64
2023/06/14 02:08:00;;;;;;;1.40;0.65;;;;;;;18.58;69.33;101153.59;5018476;28;20039;-65
2023/06/14 02:10:26;;;;;;;0.60;0.40;;;;;;;18.59;69.25;101154.38;5015947;28;20045;-65
2023/06/14 02:12:54;;;;;;;0.60;0.50;;;;;;;18.54;69.40;101157.53;5015755;28;20497;-65
2023/06/14 02:15:21;;;;;;;1.10;0.50;;;;;;;18.35;70.63;101166.16;5033397;28;20394;-65
2023/06/14 02:17:49;;;;;;;1.60;1.27;;;;;;;18.48;70.01;101161.84;5009712;28;20041;-65
2023/06/14 02:20:16;;;;;;;0.43;0.43;;;;;;;18.50;69.80;101154.03;5023051;28;20082;-63
2023/06/14 02:22:42;;;;;;;2.75;0.70;;;;;;;18.47;69.61;101160.25;5017444;28;20029;-64
2023/06/14 02:25:28;;;;;;;0.82;0.65;;;;;;;18.44;69.83;101155.63;5030969;28;20033;-65
2023/06/14 02:27:55;;;;;;;1.30;0.68;;;;;;;18.36;70.30;101162.22;4935677;29;20075;-66
2023/06/14 02:30:20;;;;;;;1.95;0.60;;;;;;;18.41;69.93;101162.59;4951354;28;20090;-66
2023/06/14 02:32:48;;;;;;;1.02;0.70;;;;;;;18.39;69.96;101166.91;4950539;28;20091;-64
2023/06/14 02:35:14;;;;;;;1.08;0.60;;;;;;;18.37;69.98;101163.81;4941317;28;20200;-66
2023/06/14 02:37:40;;;;;;;1.17;0.65;;;;;;;18.36;70.42;101162.22;4924371;29;20051;-65
2023/06/14 02:40:06;;;;;;;0.60;0.55;;;;;;;18.23;70.71;101166.56;4945677;29;20066;-64
2023/06/14 02:42:32;;;;;;;0.75;0.50;;;;;;;18.06;71.39;101176.31;4940228;29;20031;-64
2023/06/14 02:44:57;;;;;;;1.85;0.93;;;;;;;18.01;71.90;101166.63;4924282;29;20115;-65
2023/06/14 02:47:24;;;;;;;1.00;0.60;;;;;;;17.97;72.38;101176.75;4946212;28;20396;-65
2023/06/14 02:49:49;;;;;;;0.77;0.50;;;;;;;18.00;72.14;101173.22;4938442;28;20040;-64
2023/06/14 02:52:15;;;;;;;0.65;0.60;;;;;;;17.96;72.94;101177.91;4930364;29;20428;-64
2023/06/14 02:54:41;;;;;;;0.40;0.40;;;;;;;18.07;72.53;101174.38;4931321;29;20074;-65
2023/06/14 02:57:08;;;;;;;1.30;0.50;;;;;;;18.01;72.27;101177.50;4939006;28;20039;-63
2023/06/14 02:59:35;;;;;;;1.25;0.77;;;;;;;18.07;72.36;101174.38;4930354;29;20035;-64
2023/06/14 03:02:01;;;;;;;1.48;0.57;;;;;;;18.14;72.08;101171.66;4943958;29;20019;-63
2023/06/14 03:04:26;;;;;;;4.10;0.50;;;;;;;18.10;71.80;101174.38;4961677;28;20049;-64
2023/06/14 03:06:53;;;;;;;0.88;0.65;;;;;;;18.15;71.89;101184.09;4995221;28;20410;-63
2023/06/14 03:09:23;;;;;;;1.23;0.80;;;;;;;18.08;72.23;101173.22;4997629;28;20121;-63
2023/06/14 03:11:48;;;;;;;1.00;0.60;;;;;;;18.06;72.26;101181.00;5009831;28;20029;-63
2023/06/14 03:14:17;;;;;;;1.23;0.73;;;;;;;18.01;72.79;101182.19;5014148;28;20033;-63
2023/06/14 03:16:43;;;;;;;1.15;0.60;;;;;;;18.11;71.86;101186.06;5009065;28;20444;-63
2023/06/14 03:19:12;;;;;;;1.02;0.70;;;;;;;18.08;72.38;101179.44;5003923;28;20372;-63
2023/06/14 03:21:38;;;;;;;1.27;0.73;;;;;;;18.06;72.52;101187.22;5007626;28;20024;-63
2023/06/14 03:24:04;;;;;;;1.58;0.90;;;;;;;17.98;72.77;101191.16;5003983;28;20402;-64
2023/06/14 03:26:31;;;;;;;0.70;0.47;;;;;;;17.97;73.04;101192.31;5021789;28;20038;-63
2023/06/14 03:28:58;;;;;;;1.50;0.63;;;;;;;17.93;73.76;101192.31;5003833;28;20041;-63
2023/06/14 03:31:23;;;;;;;1.38;0.60;;;;;;;17.95;73.37;101198.16;5011317;28;20034;-63
2023/06/14 03:33:50;;;;;;;1.50;0.52;;;;;;;17.83;74.04;101201.28;5002251;28;20446;-63
2023/06/14 03:36:17;;;;;;;1.08;0.77;;;;;;;17.88;74.24;101194.66;5002114;28;20418;-63
2023/06/14 03:38:46;;;;;;;0.68;0.60;;;;;;;17.77;74.69;101191.94;4997269;28;20380;-63
2023/06/14 03:41:12;;;;;;;1.27;0.70;;;;;;;17.88;74.35;101208.28;5016514;28;20040;-64
2023/06/14 03:43:38;;;;;;;0.52;0.45;;;;;;;17.88;74.70;101206.34;5008648;28;20037;-64
2023/06/14 03:46:04;;;;;;;1.15;0.75;;;;;;;18.01;73.97;101198.53;5019429;28;20497;-65
2023/06/14 03:48:32;;;;;;;2.55;0.95;;;;;;;18.01;73.65;101206.72;5003158;28;20028;-64
2023/06/14 03:50:58;;;;;;;1.08;0.60;;;;;;;17.95;74.75;101213.72;5008063;28;20116;-64
2023/06/14 03:53:24;;;;;;;0.75;0.55;;;;;;;18.01;74.06;101223.06;4982231;28;20175;-63
2023/06/14 03:55:54;;;;;;;1.55;0.77;;;;;;;18.03;74.37;101232.41;5000062;28;20496;-64
2023/06/14 03:58:43;;;;;;;0.50;0.50;;;;;;;17.99;74.74;101230.84;5007324;28;20096;-64
2023/06/14 04:01:09;;;;;;;1.35;0.60;;;;;;;18.08;74.88;101227.75;4916187;28;20113;-64
2023/06/14 04:03:34;;;;;;;1.75;0.80;;;;;;;18.10;74.66;101231.63;4929561;28;20114;-63
2023/06/14 04:06:01;;;;;;;2.03;0.50;;;;;;;18.08;75.40;101235.94;4949896;28;20043;-64
2023/06/14 04:08:26;;;;;;;1.38;0.80;;;;;;;18.15;75.26;101233.19;4915621;29;20741;-63
2023/06/14 04:10:52;;;;;;;1.00;0.60;;;;;;;18.19;75.12;101236.69;4945517;29;20046;-63
2023/06/14 04:13:17;;;;;;;3.78;0.63;;;;;;;18.19;74.88;101237.47;4951682;28;20055;-63
2023/06/14 04:15:45;;;;;;;1.20;0.80;;;;;;;18.22;75.09;101238.63;4952917;28;20039;-64
2023/06/14 04:18:14;;;;;;;1.05;0.63;;;;;;;18.17;75.59;101241.75;4926947;29;20059;-63
2023/06/14 04:20:40;;;;;;;1.10;0.65;;;;;;;18.15;76.04;101255.00;4933045;29;20130;-63
2023/06/14 04:23:17;;;;;;;4.38;1.10;;;;;;;18.20;75.87;101247.19;4932612;29;20027;-63
2023/06/14 04:25:49;;;;;;;1.17;0.80;;;;;;;18.33;75.87;101253.78;4937881;29;20050;-63
2023/06/14 04:28:15;;;;;;;0.57;0.52;;;;;;;18.17;76.48;101250.72;4928575;28;20198;-63
2023/06/14 04:30:42;;;;;;;3.13;0.45;;;;;;;18.24;76.49;101249.91;4945792;28;20039;-64
2023/06/14 04:33:09;;;;;;;1.08;0.90;;;;;;;18.30;76.32;101251.88;4946973;28;20050;-64
2023/06/14 04:35:37;;;;;;;1.05;0.77;;;;;;;18.31;76.52;101256.13;4924876;29;20032;-63
2023/06/14 04:38:04;;;;;;;1.27;0.95;;;;;;;18.42;76.15;101261.59;4968366;28;20037;-64
2023/06/14 04:40:33;;;;;;;0.95;0.55;;;;;;;18.42;76.38;101259.66;5005808;28;20021;-63
2023/06/14 04:43:00;;;;;;;0.47;0.43;;;;;;;18.48;76.34;101251.88;5012672;28;20048;-61
2023/06/14 04:45:32;;;;;;;1.02;0.70;;;;;;;18.50;76.40;101252.25;5008684;28;20037;-61
2023/06/14 04:47:59;;;;;;;0.93;0.77;;;;;;;18.58;76.24;101262.72;5001422;28;20132;-63
2023/06/14 04:50:26;;;;;;;4.10;0.70;;;;;;;18.50;76.49;101257.69;5019261;28;20033;-62
2023/06/14 04:52:53;;;;;;;2.10;0.80;;;;;;;18.51;76.34;101253.78;5000841;28;20033;-61
2023/06/14 04:55:19;;;;;;;1.00;0.55;;;;;;;18.57;76.86;101249.50;5009564;28;20561;-63
2023/06/14 04:57:45;;;;;;;1.05;0.60;;;;;;;18.50;76.84;101254.97;5002882;28;20038;-63
2023/06/14 05:00:11;;;;;;;1.45;0.77;;;;;;;18.64;76.71;101260.41;5005104;28;20048;-64
2023/06/14 05:02:37;;;;;;;0.43;0.40;;;;;;;18.67;76.94;101252.19;5007320;28;20036;-62
2023/06/14 05:05:07;;;;;;;1.77;0.80;;;;;;;18.79;76.28;101256.44;5001269;28;20034;-63
2023/06/14 05:07:33;;;;;;;1.67;0.90;;;;;;;18.83;76.12;101249.03;5008255;28;20037;-64
2023/06/14 05:09:59;;;;;;;1.58;1.00;;;;;;;18.87;76.12;101255.25;5001981;28;20394;-63
2023/06/14 05:12:25;;;;;;;1.50;0.93;;;;;;;19.05;75.84;101253.22;5006937;28;20026;-64
2023/06/14 05:14:50;;;;;;;1.00;0.65;;;;;;;19.58;75.05;101261.94;5010574;28;20119;-64
2023/06/14 05:17:20;;;;;;;0.93;0.63;;;;;;;20.18;71.74;101266.94;5008451;28;20397;-64
2023/06/14 05:19:46;;;;;;;2.80;0.90;;;;;;;20.82;68.59;101261.59;5007068;28;20041;-64
2023/06/14 05:22:11;;;;;;;1.52;0.70;;;;;;;21.45;65.25;101266.25;4994798;28;20026;-65
2023/06/14 05:24:37;;;;;;;1.02;0.77;;;;;;;21.77;63.16;101265.78;5021239;28;20424;-64
2023/06/14 05:27:05;;;;;;;1.00;0.70;;;;;;;22.23;60.63;101273.28;5026106;28;20492;-62
2023/06/14 05:29:30;;;;;;;2.20;0.90;;;;;;;22.47;59.60;101272.06;5024051;28;20029;-64
2023/06/14 05:31:56;;;;;;;0.75;0.75;;;;;;;22.84;58.39;101287.47;5018137;28;20042;-64
2023/06/14 05:34:21;;;;;;;1.02;0.77;;;;;;;23.08;57.71;101275.19;5021788;28;20042;-63
2023/06/14 05:36:47;;;;;;;1.00;0.60;;;;;;;23.20;55.99;101285.53;5021715;28;20145;-64
2023/06/14 05:39:13;;;;;;;0.73;0.65;;;;;;;23.35;55.35;101286.81;5019889;28;20040;-64
2023/06/14 05:41:38;;;;;;;0.93;0.73;;;;;;;23.40;55.74;101280.03;5018228;28;20052;-65
2023/06/14 05:44:04;;;;;;;1.17;0.70;;;;;;;23.61;54.66;101285.84;5016636;28;20408;-66
2023/06/14 05:46:29;;;;;;;1.63;0.90;;;;;;;23.89;54.20;101304.41;5000162;28;20095;-65
2023/06/14 05:48:55;;;;;;;1.05;0.80;;;;;;;23.84;54.31;101302.19;5022961;28;20042;-66
2023/06/14 05:51:21;;;;;;;0.80;0.60;;;;;;;23.83;52.87;101299.84;5003490;28;20772;-64
2023/06/14 05:53:48;;;;;;;1.20;0.68;;;;;;;23.99;52.70;101308.91;5006185;28;20087;-66
2023/06/14 05:56:14;;;;;;;1.80;0.93;;;;;;;23.98;52.51;101312.09;5016849;28;20561;-65
2023/06/14 05:58:40;;;;;;;0.80;0.60;;;;;;;24.14;52.82;101320.34;5019457;28;20040;-65
2023/06/14 06:01:06;;;;;;;3.70;1.00;;;;;;;24.02;52.06;101316.31;5012981;28;20033;-66
2023/06/14 06:03:32;;;;;;;0.75;0.65;;;;;;;23.87;52.43;101315.06;5021389;28;20039;-65
2023/06/14 06:05:58;;;;;;;0.80;0.70;;;;;;;23.99;52.02;101308.09;5022490;28;20486;-65
2023/06/14 06:08:23;;;;;;;1.00;0.60;;;;;;;24.11;52.12;101310.22;5027494;28;20025;-65
2023/06/14 06:10:49;;;;;;;0.95;0.60;;;;;;;24.28;51.92;101308.19;5008492;28;20041;-64
2023/06/14 06:13:15;;;;;;;0.40;0.40;;;;;;;24.26;52.50;101303.13;5020435;28;20041;-65
2023/06/14 06:15:40;;;;;;;0.73;0.60;;;;;;;24.37;51.24;101317.41;5023906;28;20061;-66
2023/06/14 06:18:06;;;;;;;0.90;0.47;;;;;;;24.46;51.96;101312.06;5020978;28;20068;-66
2023/06/14 06:20:31;;;;;;;0.70;0.60;;;;;;;24.43;51.92;101306.66;5016292;28;20040;-61
2023/06/14 06:22:58;;;;;;;0.75;0.60;;;;;;;24.34;51.56;101307.25;5034376;28;20025;-65
2023/06/14 06:25:25;;;;;;;0.50;0.50;;;;;;;24.54;51.81;101301.63;5030358;28;20415;-63
2023/06/14 06:27:52;;;;;;;0.55;0.50;;;;;;;24.67;50.44;101308.75;5011066;28;20331;-66
2023/06/14 06:30:18;;;;;;;1.40;0.43;;;;;;;24.75;50.36;101306.59;5019975;28;20112;-64
2023/06/14 06:32:43;;;;;;;0.77;0.52;;;;;;;24.82;49.67;101315.44;5019160;28;20116;-62
2023/06/14 06:35:10;;;;;;;2.15;0.82;;;;;;;24.80;48.41;101322.59;5017428;28;20468;-64
2023/06/14 06:37:36;;;;;;;1.63;0.77;;;;;;;24.79;48.36;101316.31;5019617;28;20103;-65
2023/06/14 06:40:05;;;;;;;1.27;0.60;;;;;;;24.82;48.32;101320.16;5019233;28;20041;-62
2023/06/14 06:42:31;;;;;;;0.57;0.43;;;;;;;25.00;48.71;101324.00;4990961;28;20730;-66
2023/06/14 06:45:01;;;;;;;0.82;0.55;;;;;;;25.05;48.32;101325.41;5003110;28;20477;-66
2023/06/14 06:47:27;;;;;;;0.73;0.50;;;;;;;25.00;48.36;101323.22;5017352;28;20022;-63
2023/06/14 06:49:52;;;;;;;0.80;0.60;;;;;;;25.04;48.44;101327.44;5025806;28;20382;-66
2023/06/14 06:52:18;;;;;;;0.70;0.60;;;;;;;24.89;48.70;101329.00;5018348;28;20108;-66
2023/06/14 06:54:43;;;;;;;1.42;0.77;;;;;;;24.92;47.99;101321.88;5017496;28;20176;-66
2023/06/14 06:57:10;;;;;;;1.60;0.60;;;;;;;24.96;47.58;101328.84;5018980;28;20038;-65
2023/06/14 06:59:37;;;;;;;0.65;0.50;;;;;;;25.04;47.83;101326.66;5004729;28;20049;-66
2023/06/14 07:02:03;;;;;;;0.50;0.50;;;;;;;25.29;47.81;101339.72;5004738;28;20065;-65
2023/06/14 07:04:29;;;;;;;0.77;0.50;;;;;;;25.37;47.60;101338.28;5023408;28;20115;-65
2023/06/14 07:06:55;;;;;;;1.00;0.52;;;;;;;25.45;47.09;101334.16;5026175;28;20605;-64
2023/06/14 07:09:20;;;;;;;0.77;0.45;;;;;;;25.53;47.36;101341.00;5014914;28;20057;-63
2023/06/14 07:11:47;;;;;;;0.68;0.50;;;;;;;25.62;47.65;101339.13;5015665;28;20536;-64
2023/06/14 07:14:12;;;;;;;0.52;0.52;;;;;;;25.72;47.05;101340.00;5016951;28;20124;-65
2023/06/14 07:16:38;;;;;;;1.25;0.45;;;;;;;25.44;46.44;101343.63;5024018;28;20461;-65
2023/06/14 07:19:04;;;;;;;0.80;0.70;;;;;;;24.92;46.55;101341.94;5018235;28;20117;-64
2023/06/14 07:21:29;;;;;;;0.30;0.30;;;;;;;25.28;46.88;101341.69;5011006;28;20032;-64
2023/06/14 07:23:55;;;;;;;0.60;0.40;;;;;;;25.35;46.72;101351.75;5009192;28;20589;-65
2023/06/14 07:26:21;;;;;;;0.95;0.52;;;;;;;25.65;46.40;101338.25;5027024;28;20034;-63
2023/06/14 07:28:48;;;;;;;1.10;0.77;;;;;;;25.61;45.54;101337.56;5013223;28;20095;-65
2023/06/14 07:31:15;;;;;;;1.23;0.50;;;;;;;25.70;46.29;101343.22;5001056;28;20036;-64
2023/06/14 07:33:41;;;;;;;2.30;0.75;;;;;;;25.91;45.90;101339.78;5021907;28;20052;-65
2023/06/14 07:36:07;;;;;;;1.08;0.60;;;;;;;25.80;46.03;101341.34;4997355;28;20104;-65
2023/06/14 07:38:32;;;;;;;0.95;0.70;;;;;;;25.98;45.28;101336.00;5018118;28;20108;-64
2023/06/14 07:40:57;;;;;;;0.40;0.40;;;;;;;26.22;45.52;101333.69;5023245;28;20429;-64
2023/06/14 07:43:23;;;;;;;1.00;0.68;;;;;;;26.43;44.20;101344.81;5029548;28;20029;-65
2023/06/14 07:45:48;;;;;;;1.02;0.50;;;;;;;26.49;43.61;101331.19;5019658;28;20074;-66
2023/06/14 07:48:14;;;;;;;1.20;0.50;;;;;;;26.48;43.61;101332.41;5024641;28;20033;-66
2023/06/14 07:50:39;;;;;;;0.50;0.50;;;;;;;26.55;43.92;101343.22;5022662;28;20032;-65
2023/06/14 07:53:05;;;;;;;1.15;0.65;;;;;;;26.65;43.93;101331.78;5024257;28;20113;-66
2023/06/14 07:55:32;;;;;;;0.60;0.50;;;;;;;26.84;44.39;101340.25;5012088;28;20029;-66
2023/06/14 07:57:58;;;;;;;1.25;0.40;;;;;;;26.98;44.67;101337.78;5016544;28;20121;-66
2023/06/14 08:00:26;;;;;;;1.15;0.60;;;;;;;27.10;43.35;101341.69;5002472;28;20033;-66
2023/06/14 08:02:58;;;;;;;0.77;0.47;;;;;;;27.08;43.01;101341.38;4991687;28;20358;-66
2023/06/14 08:05:24;;;;;;;0.60;0.50;;;;;;;27.24;43.09;101338.38;5026207;28;20489;-66
2023/06/14 08:07:49;;;;;;;0.93;0.60;;;;;;;27.42;42.61;101349.59;5013734;28;20125;-66
2023/06/14 08:10:35;;;;;;;0.90;0.47;;;;;;;27.64;42.09;101351.06;5005117;28;20033;-65
2023/06/14 08:13:00;;;;;;;0.80;0.60;;;;;;;27.81;41.78;101343.31;4951687;28;20051;-65
2023/06/14 08:15:46;;;;;;;0.70;0.52;;;;;;;27.89;41.63;101350.09;4949707;28;20042;-66
2023/06/14 08:18:12;;;;;;;1.63;0.70;;;;;;;28.03;41.55;101349.53;4884748;29;20153;-65
2023/06/14 08:20:37;;;;;;;0.95;0.70;;;;;;;28.09;41.18;101353.25;4894636;29;20115;-65
2023/06/14 08:23:03;;;;;;;0.73;0.40;;;;;;;28.07;40.90;101343.84;4885726;29;20041;-66
2023/06/14 08:25:30;;;;;;;0.90;0.50;;;;;;;28.15;41.21;101350.66;4895161;29;20078;-66
2023/06/14 08:27:55;;;;;;;1.00;0.65;;;;;;;28.11;41.93;101345.25;4886469;29;20076;-66
2023/06/14 08:30:21;;;;;;;0.40;0.40;;;;;;;28.35;40.49;101349.00;4884707;29;20064;-66
2023/06/14 08:32:47;;;;;;;0.90;0.63;;;;;;;28.34;40.23;101346.69;4887162;29;20511;-65
2023/06/14 08:35:13;;;;;;;0.38;0.32;;;;;;;28.61;39.89;101348.75;4886822;29;20056;-65
2023/06/14 08:37:41;;;;;;;0.57;0.50;;;;;;;28.63;41.72;101349.81;4882043;29;20108;-66
2023/06/14 08:40:18;;;;;;;2.58;0.80;;;;;;;28.53;40.59;101349.00;4891537;29;20430;-65
2023/06/14 08:42:44;;;;;;;0.73;0.50;;;;;;;28.67;40.81;101344.88;4887799;29;20095;-66
2023/06/14 08:45:09;;;;;;;0.77;0.68;;;;;;;28.58;39.65;101344.91;4888288;29;20040;-64
2023/06/14 08:47:36;;;;;;;1.30;0.73;;;;;;;28.72;40.85;101344.28;4890864;29;20036;-65
2023/06/14 08:50:03;;;;;;;0.90;0.60;;;;;;;28.90;40.48;101354.59;4926614;28;20046;-63
2023/06/14 08:52:40;;;;;;;0.63;0.45;;;;;;;29.00;39.97;101343.03;4959281;28;20030;-65
2023/06/14 08:55:06;;;;;;;0.70;0.60;;;;;;;28.90;39.28;101351.84;4964985;28;20050;-65
2023/06/14 08:57:34;;;;;;;0.68;0.60;;;;;;;29.11;39.39;101351.63;5020564;28;20041;-66
2023/06/14 09:00:05;;;;;;;0.93;0.55;;;;;;;29.29;39.76;101348.06;5017357;28;20052;-66
2023/06/14 09:02:30;;;;;;;0.80;0.60;;;;;;;29.28;40.36;101341.78;5018114;28;20044;-66
2023/06/14 09:04:59;;;;;;;1.15;0.60;;;;;;;29.53;39.43;101350.94;5023048;28;20042;-65
2023/06/14 09:07:25;;;;;;;0.70;0.50;;;;;;;29.10;38.72;101343.78;5003419;28;20109;-65
2023/06/14 09:10:10;;;;;;;1.55;0.70;;;;;;;29.34;39.08;101350.25;5017079;28;20033;-65
2023/06/14 09:12:56;;;;;;;1.00;0.70;;;;;;;29.63;38.63;101344.91;5029556;28;20040;-67
2023/06/14 09:15:21;;;;;;;1.25;0.50;;;;;;;29.65;38.42;101350.75;4955094;28;20138;-64
2023/06/14 09:17:47;;;;;;;1.17;0.50;;;;;;;29.67;37.75;101353.06;4962717;28;20702;-65
2023/06/14 09:20:22;;;;;;;1.10;0.60;;;;;;;29.75;38.12;101346.69;4959784;28;20043;-65
2023/06/14 09:22:47;;;;;;;1.42;0.70;;;;;;;29.89;38.57;101351.59;4961698;28;20031;-65
2023/06/14 09:25:15;;;;;;;1.80;0.70;;;;;;;29.97;37.92;101347.22;4967575;28;20109;-65
2023/06/14 09:27:42;;;;;;;1.33;0.60;;;;;;;29.97;37.11;101341.66;4948063;28;20106;-65
2023/06/14 09:30:09;;;;;;;0.93;0.52;;;;;;;30.11;37.77;101351.31;4948781;28;20045;-65
2023/06/14 09:32:42;;;;;;;0.75;0.60;;;;;;;30.05;37.96;101342.09;4958007;28;20031;-65
2023/06/14 09:35:08;;;;;;;0.47;0.45;;;;;;;30.10;38.22;101355.34;4961721;28;20079;-65
2023/06/14 09:37:34;;;;;;;1.77;0.70;;;;;;;30.11;37.50;101337.41;4951213;28;20396;-65
2023/06/14 09:40:00;;;;;;;0.65;0.55;;;;;;;30.13;37.48;101343.28;4949594;28;20211;-65
2023/06/14 09:42:27;;;;;;;2.78;0.85;;;;;;;29.99;37.29;101343.97;4964769;28;20151;-64
2023/06/14 09:44:54;;;;;;;0.88;0.68;;;;;;;30.01;37.44;101355.38;4958767;28;20058;-65
2023/06/14 09:47:21;;;;;;;0.88;0.75;;;;;;;30.06;37.45;101344.38;4961894;28;20113;-65
2023/06/14 09:49:47;;;;;;;3.72;0.65;;;;;;;30.34;37.58;101333.88;4963006;28;20089;-65
2023/06/14 09:52:18;;;;;;;1.02;0.50;;;;;;;30.47;37.34;101336.44;4982729;28;20053;-64
2023/06/14 09:54:48;;;;;;;1.40;0.50;;;;;;;30.35;36.97;101337.44;5023990;28;20620;-65
2023/06/14 09:57:16;;;;;;;4.38;1.00;;;;;;;30.35;36.44;101340.22;5020683;28;20053;-65
2023/06/14 09:59:44;;;;;;;0.70;0.70;;;;;;;30.42;36.47;101332.28;5024778;28;20437;-67
2023/06/14 10:02:21;;;;;;;1.00;0.80;;;;;;;30.72;36.33;101342.22;5023952;28;20033;-66
2023/06/14 10:04:57;;;;;;;0.50;0.43;;;;;;;30.93;35.62;101338.34;5023050;28;20034;-64
2023/06/14 10:07:26;;;;;;;0.93;0.60;;;;;;;30.87;36.18;101339.50;5012571;28;20059;-64
2023/06/14 10:09:53;;;;;;;1.17;0.57;;;;;;;30.88;36.17;101335.47;5005891;28;20112;-65
2023/06/14 10:12:22;;;;;;;4.10;0.77;;;;;;;30.99;35.88;101335.69;4994669;28;20088;-65
2023/06/14 10:14:53;;;;;;;1.33;0.55;;;;;;;30.82;36.34;101335.34;5005249;28;20033;-64
2023/06/14 10:17:27;;;;;;;0.70;0.70;;;;;;;30.65;35.97;101334.25;5024309;28;20131;-64
2023/06/14 10:20:35;;;;;;;0.73;0.63;;;;;;;30.61;36.21;101339.25;5027633;28;20052;-65
2023/06/14 10:23:13;;;;;;;1.08;0.60;;;;;;;30.32;36.37;101339.16;5021174;28;20166;-64
2023/06/14 10:25:39;;;;;;;0.82;0.57;;;;;;;30.11;36.88;101332.63;5025307;28;20076;-65
2023/06/14 10:28:24;;;;;;;0.85;0.70;;;;;;;30.34;37.71;101328.31;5026941;28;20049;-65
2023/06/14 10:31:13;;;;;;;0.90;0.63;;;;;;;30.44;37.78;101320.69;5024535;28;20048;-65
2023/06/14 10:33:47;;;;;;;0.77;0.70;;;;;;;30.65;36.80;101325.91;5027358;28;20054;-65
2023/06/14 10:36:22;;;;;;;3.20;0.60;;;;;;;30.74;36.89;101319.50;5023005;28;20041;-65
2023/06/14 10:39:17;;;;;;;1.08;0.70;;;;;;;30.42;37.01;101315.59;5006386;28;20072;-65
2023/06/14 10:41:52;;;;;;;1.30;0.70;;;;;;;30.59;37.44;101315.91;5004048;28;20408;-66
2023/06/14 10:44:21;;;;;;;1.50;0.70;;;;;;;30.46;36.84;101318.19;5020530;28;20075;-65
2023/06/14 10:46:52;;;;;;;0.65;0.60;;;;;;;30.03;37.03;101320.31;5019786;28;21699;-64
2023/06/14 10:49:44;;;;;;;1.00;0.70;;;;;;;29.96;37.35;101315.13;4999812;28;20026;-65
2023/06/14 10:52:18;;;;;;;1.15;0.60;;;;;;;29.75;38.26;101324.47;5019145;28;20049;-65
2023/06/14 10:55:05;;;;;;;0.93;0.52;;;;;;;29.52;38.08;101302.94;5025537;28;20075;-65
2023/06/14 10:57:32;;;;;;;1.08;0.63;;;;;;;29.72;36.84;101302.44;5015215;28;20034;-64
2023/06/14 11:00:11;;;;;;;0.93;0.55;;;;;;;29.75;37.17;101302.25;5008697;28;20112;-67
2023/06/14 11:02:51;;;;;;;0.95;0.60;;;;;;;30.19;37.18;101302.47;5023664;28;20497;-65
2023/06/14 11:05:23;;;;;;;1.73;0.88;;;;;;;30.51;36.24;101309.94;5024273;28;20034;-66
2023/06/14 11:08:11;;;;;;;1.08;0.60;;;;;;;30.66;36.38;101310.00;5020071;28;20033;-65
2023/06/14 11:10:41;;;;;;;1.45;0.70;;;;;;;30.67;35.92;101305.94;5021125;28;20429;-65
2023/06/14 11:13:07;;;;;;;0.73;0.52;;;;;;;30.12;35.64;101300.78;5011605;28;20523;-66
2023/06/14 11:15:34;;;;;;;0.85;0.75;;;;;;;30.12;36.46;101292.47;5022143;28;20116;-65
2023/06/14 11:18:02;;;;;;;1.67;0.63;;;;;;;29.93;36.45;101288.25;5019770;28;20041;-65
2023/06/14 11:20:30;;;;;;;2.25;0.50;;;;;;;30.30;36.69;101288.03;5026941;28;20045;-64
2023/06/14 11:22:56;;;;;;;0.55;0.40;;;;;;;30.76;36.69;101289.94;5022260;28;20060;-64
2023/06/14 11:25:21;;;;;;;1.52;0.80;;;;;;;30.74;36.44;101288.91;5012763;28;20058;-64
2023/06/14 11:27:50;;;;;;;0.85;0.60;;;;;;;30.81;36.14;101288.50;5006165;28;20041;-64
2023/06/14 11:30:36;;;;;;;2.08;0.50;;;;;;;30.67;35.59;101292.03;5015559;28;20042;-65